Tropical Cyclones
[Index]
Main Index Home Page Stock Weather Photos Extreme Storms Discussion Storm News and Storm Chasing Reports Tropical Cyclones / Hurricanes / Typhoons Weather Data and Links Wild Fires / Bushfires Weather Observation Techniques Weather Picture Catalogue Tornado Pictures and Reports Stock Video Footage and DVDs for sale
Season 1971-1972 Tropical Cyclone VICKY Track Map
Season 1971-1972 Summaries: [BoM-AU] [JTWC-AU] [JTWC-SIO] [JTWC-SPAC] [JTWC-SH]
<<- Previous TC | BoM 1971-1972 Season | Next TC ->>

click for intensity scale information  Lat/long Grid: Show Hide

 Date Labels: Show Hide

Bureau of Meteorology Tropical Cyclone Data

Name: VICKY
Number: 490 / 197172_11

24 Feb 1972 01:00 UTC to 04 Mar 1972 01:00 UTC

    date/time    lat    long    hPa   cat  kts
1972-02-24 01   11.0   122.0   1000                     
1972-02-24 04   11.3   121.4   1004                     
1972-02-24 07   11.6   120.8   1004                     
1972-02-24 10   11.9   120.2   1004                     
1972-02-24 13   12.2   119.7   1003                     
1972-02-24 16   12.6   119.1   1003                     
1972-02-24 19   12.9   118.7   1003                     
1972-02-24 22   13.2   118.1   1002                     
1972-02-25 01   13.5   117.3   1002                     
1972-02-25 04   13.5   116.9   1002                     
1972-02-25 07   13.4   116.2   1001                     
1972-02-25 10   13.3   115.5   1001                     
1972-02-25 13   13.1   114.8   1000                     
1972-02-25 16   13.0   114.1   1000                     
1972-02-25 19   13.0   113.4    999                     
1972-02-25 22   13.0   112.7    999                     
1972-02-26 01   13.0   112.0    998                     
1972-02-26 04   13.0   111.5    996                     
1972-02-26 07   13.0   111.0    994    1                
1972-02-26 10   13.0   110.5    992    1                
1972-02-26 13   13.0   110.0    990    1                
1972-02-26 16   13.2   109.5    988    1                
1972-02-26 19   13.4   109.0    986    1                
1972-02-26 22   13.7   108.5    983    2                
1972-02-27 01   13.9   108.0    980    2                
1972-02-27 04   13.9   108.0    980    2                
1972-02-27 07   14.0   108.0    980    2                
1972-02-27 10   14.1   108.0    980    2                
1972-02-27 13   14.2   108.0    980    2                
1972-02-27 16   14.3   108.0    980    2                
1972-02-27 19   14.4   108.0    980    2                
1972-02-27 22   14.4   108.0    980    2                
1972-02-28 01   14.5   108.1    980    2                
1972-02-28 04   14.5   108.1    981    2                
1972-02-28 07   14.6   108.3    983    2                
1972-02-28 10   14.6   108.5    985    2                
1972-02-28 13   14.7   108.8    986    1                
1972-02-28 16   14.7   109.1    987    1                
1972-02-28 19   14.8   109.4    988    1                
1972-02-28 22   14.9   109.7    989    1                
1972-02-29 01   15.0   110.0    990    1                
1972-02-29 04   15.0   111.0    989    1                
1972-02-29 07   15.0   111.8    987    1                
1972-02-29 10   15.1   112.6    984    2                
1972-02-29 13   15.2   113.3    981    2                
1972-02-29 16   15.3   114.1    978    2                
1972-02-29 19   15.4   114.9    975    2                
1972-02-29 22   15.5   115.7    972    2                
1972-03-01 01   15.5   116.2    970    3                
1972-03-01 04   15.6   116.9    968    3                
1972-03-01 07   15.7   117.3    966    3                
1972-03-01 10   15.7   117.7    965    3                
1972-03-01 13   15.8   118.1    964    3                
1972-03-01 16   15.8   118.5    963    3                
1972-03-01 19   15.9   118.9    962    3                
1972-03-01 22   15.9   119.2    961    3                
1972-03-02 01   16.0   119.5    960    3                
1972-03-02 04   16.0   119.9    961    3                
1972-03-02 10   16.0   120.7    963    3                
1972-03-02 13   16.0   121.0    964    3                
1972-03-02 16   16.0   121.4    965    3                
1972-03-02 19   16.0   121.8    966    3                
1972-03-02 22   16.0   122.2    965    3                
1972-03-03 01   16.0   122.5    970    3                
1972-03-03 04   16.1   122.9    972    2                
1972-03-03 07   16.2   122.3    974    2                
1972-03-03 10   16.2   123.7    976    2                
1972-03-03 13   16.3   124.1    978    2                
1972-03-03 16   16.8   124.5    980    2                
1972-03-03 19   16.9   124.9    980    2                
1972-03-03 22   16.9   125.3    987    1                
1972-03-04 01   16.9   125.7    995    1                
Winds are 10-min average.

Tropical cyclone tracks developed by Michael Bath using data from the Bureau of Meteorology and Google Maps.


[Australian Severe Weather index] [Copyright Notice] [Email Contacts] [Search This Site] [Privacy Policy]
Document: tropical_cyclone_vicky.htm Updated: 30 May 2013